Time;durP1;ratioP1;P1;durP2;ratioP2;P2;SDS_P1;SDS_P2;PMS_P1;PMS_P2;Temp;Humidity;BMP_temperature;BMP_pressure;BME280_temperature;BME280_humidity;BME280_pressure;Samples;Min_cycle;Max_cycle;Signal;HPM_P1;HPM_P2
2021/06/12 00:02:13;;;;;;;0.10;0.10;;;;;;;15.94;76.96;101000.06;5042494;28;20418;-85
2021/06/12 00:04:41;;;;;;;0.10;0.10;;;;;;;15.81;76.53;100973.44;5058717;28;20044;-86
2021/06/12 00:11:27;;;;;;;0.10;0.10;;;;;;;16.08;76.55;101026.66;5048203;28;20603;-85
2021/06/12 00:17:46;;;;;;;0.10;0.10;;;;;;;15.70;76.11;100981.06;5039655;28;20049;-87
2021/06/12 00:20:17;;;;;;;0.10;0.10;;;;;;;15.93;76.76;101003.91;5032067;28;20053;-86
2021/06/12 00:22:49;;;;;;;0.10;0.10;;;;;;;15.90;76.96;100979.03;5059794;28;20057;-86
2021/06/12 00:25:48;;;;;;;0.20;0.20;;;;;;;15.84;77.85;100988.47;5047061;28;20049;-85
2021/06/12 00:28:29;;;;;;;0.20;0.10;;;;;;;15.76;77.55;100979.84;5036319;28;20045;-86
2021/06/12 00:31:03;;;;;;;0.20;0.20;;;;;;;15.61;77.58;100960.97;5047419;28;20045;-85
2021/06/12 00:33:51;;;;;;;0.10;0.10;;;;;;;15.63;77.58;100973.25;5058730;28;20045;-86
2021/06/12 00:36:20;;;;;;;0.43;0.10;;;;;;;15.47;77.24;100950.81;5054810;28;20045;-84
2021/06/12 00:39:07;;;;;;;0.63;0.20;;;;;;;15.84;77.25;100999.47;5054255;28;20048;-86
2021/06/12 00:42:06;;;;;;;0.20;0.20;;;;;;;15.85;77.18;101009.31;5067130;28;20045;-85
2021/06/12 00:44:56;;;;;;;0.00;0.00;;;;;;;15.73;76.65;100998.81;5070871;28;20514;-86
2021/06/12 00:47:24;;;;;;;0.10;0.10;;;;;;;15.83;77.23;101000.59;5035572;28;20450;-86
2021/06/12 00:49:53;;;;;;;0.20;0.20;;;;;;;15.80;77.03;100996.53;5050443;28;20064;-85
2021/06/12 00:52:27;;;;;;;0.10;0.10;;;;;;;15.72;77.35;100989.78;5060414;28;20056;-86
2021/06/12 00:54:59;;;;;;;0.10;0.10;;;;;;;15.50;76.70;100954.88;5052311;28;20635;-86
2021/06/12 00:58:18;;;;;;;0.10;0.10;;;;;;;15.79;76.96;100997.63;5058427;28;20044;-85
2021/06/12 01:00:51;;;;;;;0.10;0.10;;;;;;;15.79;76.65;100992.13;5043820;28;20052;-86
2021/06/12 01:03:18;;;;;;;0.10;0.10;;;;;;;15.65;75.48;100960.03;5049785;28;20432;-85
2021/06/12 01:05:48;;;;;;;0.10;0.10;;;;;;;15.52;77.38;100962.78;5058853;28;20051;-85
2021/06/12 01:08:21;;;;;;;0.10;0.10;;;;;;;15.44;76.49;100945.94;5066184;28;20041;-86
2021/06/12 01:10:53;;;;;;;0.20;0.20;;;;;;;15.70;76.50;100985.72;5065295;28;20052;-86
2021/06/12 01:13:31;;;;;;;0.10;0.10;;;;;;;15.78;76.93;101007.78;5050874;28;20421;-85
2021/06/12 01:16:07;;;;;;;0.20;0.20;;;;;;;15.68;77.33;100998.97;5041031;28;20047;-84
2021/06/12 01:18:44;;;;;;;0.10;0.10;;;;;;;15.43;77.32;100958.03;5032898;28;20064;-86
2021/06/12 01:21:45;;;;;;;0.10;0.10;;;;;;;15.72;77.65;101002.72;5047919;28;20044;-86
2021/06/12 01:24:47;;;;;;;0.10;0.10;;;;;;;15.71;78.26;100992.84;5038516;28;20057;-85
2021/06/12 01:27:47;;;;;;;0.10;0.10;;;;;;;15.69;78.19;100981.34;5052911;28;20059;-85
2021/06/12 01:30:17;;;;;;;0.10;0.10;;;;;;;15.52;78.58;100963.59;5048288;28;20042;-86
2021/06/12 01:32:49;;;;;;;0.10;0.10;;;;;;;15.39;79.32;100957.00;5039843;28;20497;-84
2021/06/12 01:35:24;;;;;;;0.15;0.15;;;;;;;15.29;79.10;100929.81;5056870;28;20068;-86
2021/06/12 01:38:21;;;;;;;0.10;0.10;;;;;;;15.51;79.52;100962.00;5037980;28;20041;-85
2021/06/12 01:41:44;;;;;;;0.10;0.10;;;;;;;15.63;78.89;100953.22;5060724;28;20049;-85
2021/06/12 01:44:13;;;;;;;0.10;0.10;;;;;;;15.46;79.12;100926.44;5052256;28;20052;-86
2021/06/12 01:46:45;;;;;;;0.10;0.10;;;;;;;15.60;78.72;100929.94;5050091;28;20482;-85
2021/06/12 01:49:15;;;;;;;0.10;0.10;;;;;;;15.51;78.88;100931.81;5036602;28;20056;-86
2021/06/12 01:51:47;;;;;;;0.93;0.20;;;;;;;15.50;78.83;100929.38;5051105;28;20059;-86
2021/06/12 01:54:19;;;;;;;0.10;0.10;;;;;;;15.72;78.81;100965.09;5057480;28;20040;-85
2021/06/12 01:57:49;;;;;;;0.10;0.10;;;;;;;15.81;78.85;100962.47;5071527;28;20044;-85
2021/06/12 02:00:18;;;;;;;0.10;0.10;;;;;;;15.73;78.82;100957.66;5058226;28;20414;-86
2021/06/12 02:02:55;;;;;;;0.10;0.10;;;;;;;15.70;78.44;100945.41;5058451;28;20051;-85
2021/06/12 02:05:36;;;;;;;0.10;0.10;;;;;;;15.60;78.37;100929.16;5035113;28;20042;-86
2021/06/12 02:08:10;;;;;;;0.10;0.10;;;;;;;15.63;77.82;100912.91;5059647;28;20053;-85
2021/06/12 02:10:53;;;;;;;0.10;0.10;;;;;;;15.74;78.01;100938.19;5052285;28;20044;-85
2021/06/12 02:13:24;;;;;;;0.10;0.10;;;;;;;15.46;78.74;100908.03;5050612;28;20505;-87
2021/06/12 02:15:55;;;;;;;0.10;0.10;;;;;;;15.83;78.57;100948.47;5040177;28;20417;-85
2021/06/12 02:18:27;;;;;;;0.20;0.20;;;;;;;15.71;79.01;100935.22;5030992;28;20049;-87
2021/06/12 02:21:00;;;;;;;0.13;0.13;;;;;;;15.28;79.30;100865.91;5035447;28;20056;-86
2021/06/12 02:23:34;;;;;;;0.10;0.10;;;;;;;15.81;79.40;100941.34;5044461;28;20054;-85
2021/06/12 02:26:03;;;;;;;0.10;0.10;;;;;;;15.65;78.49;100905.16;5061703;28;20059;-86
2021/06/12 02:28:37;;;;;;;0.10;0.10;;;;;;;15.74;78.74;100920.88;5049219;28;20416;-85
2021/06/12 02:31:17;;;;;;;0.20;0.20;;;;;;;15.68;79.01;100914.72;5051021;28;20075;-85
2021/06/12 02:33:50;;;;;;;0.10;0.10;;;;;;;15.53;78.69;100891.16;5049570;28;20056;-86
2021/06/12 02:36:25;;;;;;;0.10;0.10;;;;;;;15.55;79.01;100905.41;5037649;28;20412;-86
2021/06/12 02:38:53;;;;;;;0.10;0.10;;;;;;;15.45;78.76;100895.47;5041341;28;20398;-85
2021/06/12 02:41:24;;;;;;;0.10;0.10;;;;;;;15.76;78.44;100938.66;5041181;28;20057;-85
2021/06/12 02:43:57;;;;;;;0.20;0.20;;;;;;;15.47;78.79;100898.69;5047684;28;20058;-86
2021/06/12 02:47:01;;;;;;;0.10;0.10;;;;;;;15.68;79.05;100931.16;5032158;28;20056;-87
2021/06/12 02:49:33;;;;;;;0.10;0.10;;;;;;;15.49;79.49;100903.88;5052254;28;20049;-85
2021/06/12 02:52:05;;;;;;;0.10;0.10;;;;;;;15.65;79.37;100931.78;5054998;28;20052;-85
2021/06/12 02:54:36;;;;;;;0.10;0.10;;;;;;;15.53;79.18;100906.81;5049809;28;20049;-86
2021/06/12 02:57:06;;;;;;;0.20;0.20;;;;;;;15.55;79.42;100910.88;5051133;28;20049;-85
2021/06/12 03:00:24;;;;;;;0.10;0.10;;;;;;;15.69;79.64;100924.56;5058521;28;20064;-86
2021/06/12 03:02:53;;;;;;;0.10;0.10;;;;;;;15.69;79.84;100927.31;5058119;28;20051;-86
2021/06/12 03:05:26;;;;;;;0.10;0.10;;;;;;;15.44;79.27;100880.13;5053460;28;20053;-86
2021/06/12 03:07:57;;;;;;;0.10;0.10;;;;;;;15.65;80.16;100918.06;5055704;28;20064;-88
2021/06/12 03:10:33;;;;;;;0.10;0.10;;;;;;;15.45;79.82;100876.25;5040254;28;20041;-86
2021/06/12 03:13:04;;;;;;;0.20;0.20;;;;;;;15.75;79.46;100925.25;5050385;28;20045;-87
2021/06/12 03:15:38;;;;;;;0.20;0.20;;;;;;;15.61;79.29;100889.63;5048749;28;20054;-86
2021/06/12 03:18:06;;;;;;;0.13;0.13;;;;;;;15.68;79.75;100898.25;5040219;28;20037;-86
2021/06/12 03:20:36;;;;;;;0.15;0.10;;;;;;;15.58;80.12;100884.78;5045457;28;20056;-88
2021/06/12 03:23:05;;;;;;;0.10;0.10;;;;;;;15.58;79.48;100882.03;5051764;28;20051;-85
2021/06/12 03:25:39;;;;;;;0.13;0.13;;;;;;;15.61;79.56;100863.00;5049865;28;20060;-85
2021/06/12 03:28:07;;;;;;;0.15;0.15;;;;;;;15.65;79.81;100880.47;5052619;28;20044;-84
2021/06/12 03:30:52;;;;;;;0.10;0.10;;;;;;;15.67;79.70;100874.66;5054580;28;20049;-85
2021/06/12 03:33:20;;;;;;;0.20;0.20;;;;;;;15.73;79.26;100883.59;5058183;28;20045;-86
2021/06/12 03:35:56;;;;;;;0.20;0.20;;;;;;;15.55;79.80;100845.06;5047067;28;20502;-86
2021/06/12 03:38:24;;;;;;;0.10;0.10;;;;;;;15.86;79.42;100882.78;5050772;28;20051;-86
2021/06/12 03:40:57;;;;;;;0.10;0.10;;;;;;;15.87;78.76;100873.44;5046616;28;20053;-86
2021/06/12 03:43:26;;;;;;;0.15;0.15;;;;;;;15.85;79.63;100883.09;5059003;28;20049;-86
2021/06/12 03:45:56;;;;;;;0.10;0.10;;;;;;;15.74;79.82;100866.00;5072199;28;20382;-86
2021/06/12 03:48:24;;;;;;;0.10;0.10;;;;;;;15.89;79.29;100875.84;5033441;28;206169;-86
2021/06/12 03:51:20;;;;;;;0.15;0.15;;;;;;;15.89;80.09;100893.13;5065625;28;20416;-87
2021/06/12 03:54:05;;;;;;;0.20;0.20;;;;;;;16.10;79.19;100898.13;5033429;28;20049;-86
2021/06/12 03:56:37;;;;;;;0.10;0.10;;;;;;;15.98;79.17;100885.78;5049512;28;20052;-86
2021/06/12 03:59:07;;;;;;;0.10;0.10;;;;;;;15.99;79.59;100905.78;5055796;28;20056;-86
2021/06/12 04:02:02;;;;;;;0.20;0.20;;;;;;;15.97;79.59;100905.31;5047080;28;20044;-85
2021/06/12 04:04:36;;;;;;;0.10;0.10;;;;;;;15.63;79.94;100857.19;5044201;28;20056;-87
2021/06/12 04:07:10;;;;;;;0.20;0.20;;;;;;;16.05;79.82;100909.25;5056678;28;20078;-86
2021/06/12 04:09:52;;;;;;;0.63;0.20;;;;;;;16.02;79.35;100898.88;5057307;28;20052;-84
2021/06/12 04:13:10;;;;;;;0.10;0.10;;;;;;;16.01;79.48;100908.25;5051707;28;20053;-86
2021/06/12 04:19:22;;;;;;;0.10;0.10;;;;;;;15.70;79.28;100841.16;5053233;28;20528;-86
2021/06/12 04:22:41;;;;;;;0.10;0.10;;;;;;;16.15;79.05;100896.06;5054505;28;20042;-84
2021/06/12 04:25:11;;;;;;;0.17;0.17;;;;;;;15.91;79.55;100884.56;5042391;28;20061;-86
2021/06/12 04:28:04;;;;;;;0.10;0.10;;;;;;;16.08;80.11;100906.69;5057206;28;20821;-85
2021/06/12 04:30:37;;;;;;;0.10;0.10;;;;;;;16.08;80.26;100905.88;5052266;28;20501;-86
2021/06/12 04:33:05;;;;;;;0.17;0.17;;;;;;;15.79;80.54;100876.88;5049671;28;20410;-85
2021/06/12 04:40:03;;;;;;;;;;;;;;;15.84;81.60;100889.69;5065811;28;20035;-86
2021/06/12 04:42:32;;;;;;;0.10;0.10;;;;;;;15.71;81.46;100881.16;5059178;28;20289;-86
2021/06/12 04:45:00;;;;;;;0.10;0.10;;;;;;;15.74;81.41;100891.53;5065264;28;20071;-87
2021/06/12 04:47:28;;;;;;;0.20;0.20;;;;;;;15.65;80.95;100865.94;5049481;28;20056;-85
2021/06/12 04:49:57;;;;;;;0.10;0.10;;;;;;;15.58;81.30;100860.09;5038417;28;20068;-85
2021/06/12 04:52:52;;;;;;;0.10;0.10;;;;;;;15.80;81.69;100889.50;5061056;28;20052;-85
2021/06/12 04:56:10;;;;;;;0.20;0.20;;;;;;;15.74;82.31;100882.47;5048268;28;20056;-85
2021/06/12 04:58:41;;;;;;;0.25;0.10;;;;;;;15.46;82.22;100850.44;5043964;28;20048;-85
2021/06/12 05:01:08;;;;;;;0.13;0.13;;;;;;;15.46;81.71;100838.66;5054611;28;20404;-85
2021/06/12 05:03:36;;;;;;;0.10;0.10;;;;;;;15.79;81.73;100888.69;5036725;28;20052;-85
2021/06/12 05:06:05;;;;;;;0.10;0.10;;;;;;;15.73;82.16;100876.19;5052458;28;20056;-85
2021/06/12 05:08:33;;;;;;;0.20;0.20;;;;;;;15.57;81.83;100848.28;5047022;28;20498;-84
2021/06/12 05:11:05;;;;;;;0.10;0.10;;;;;;;15.53;82.05;100847.28;5058108;28;20477;-86
2021/06/12 05:13:41;;;;;;;0.10;0.10;;;;;;;15.80;82.28;100868.34;5033326;28;20512;-85
2021/06/12 05:16:15;;;;;;;0.20;0.20;;;;;;;15.85;81.82;100864.69;5043301;28;20045;-86
2021/06/12 05:18:52;;;;;;;0.20;0.20;;;;;;;15.79;81.67;100849.44;5041389;28;20049;-85
2021/06/12 05:21:48;;;;;;;0.20;0.20;;;;;;;15.98;82.15;100891.25;5041631;28;20048;-86
2021/06/12 05:24:19;;;;;;;0.20;0.20;;;;;;;15.86;82.27;100866.31;5051184;28;20053;-86
2021/06/12 05:26:57;;;;;;;0.20;0.20;;;;;;;16.01;81.93;100889.03;5068691;28;20052;-86
2021/06/12 05:29:34;;;;;;;0.10;0.10;;;;;;;15.81;82.08;100864.50;5056085;28;20059;-86
2021/06/12 05:32:07;;;;;;;0.13;0.13;;;;;;;15.78;82.97;100867.84;5051666;28;20405;-86
2021/06/12 05:34:37;;;;;;;0.10;0.10;;;;;;;16.04;81.77;100870.00;5063395;28;20420;-86
2021/06/12 05:37:05;;;;;;;0.10;0.10;;;;;;;15.72;82.23;100827.13;5053980;28;20055;-86
2021/06/12 05:39:38;;;;;;;0.20;0.20;;;;;;;16.06;82.22;100881.47;5053069;28;20397;-85
2021/06/12 05:42:11;;;;;;;0.10;0.10;;;;;;;16.30;81.85;100886.63;5049334;28;20146;-85
2021/06/12 05:48:59;;;;;;;0.10;0.10;;;;;;;16.33;81.38;100872.25;5051237;28;20044;-85
2021/06/12 05:52:41;;;;;;;0.20;0.20;;;;;;;16.39;82.23;100900.44;5047489;28;20375;-85
2021/06/12 05:55:13;;;;;;;0.25;0.25;;;;;;;16.29;81.61;100881.47;5050099;28;20060;-86
2021/06/12 05:57:43;;;;;;;0.10;0.10;;;;;;;16.13;81.61;100850.84;5043922;28;20556;-87
2021/06/12 06:04:32;;;;;;;0.10;0.10;;;;;;;16.32;80.75;100881.66;5059730;28;20060;-86
2021/06/12 06:23:25;;;;;;;0.10;0.10;;;;;;;16.56;78.62;100871.41;5051390;28;20044;-86
2021/06/12 06:25:54;;;;;;;0.10;0.10;;;;;;;16.48;77.67;100840.84;5063836;28;20091;-87
2021/06/12 06:28:23;;;;;;;0.10;0.10;;;;;;;16.52;77.93;100849.28;5058147;28;20055;-87
2021/06/12 06:35:16;;;;;;;0.13;0.13;;;;;;;16.59;77.52;100863.38;5042403;28;20056;-86
2021/06/12 06:37:52;;;;;;;0.10;0.10;;;;;;;16.36;77.15;100813.16;5045313;28;20508;-86
2021/06/12 06:40:22;;;;;;;0.10;0.10;;;;;;;16.42;76.21;100827.56;5054554;28;20049;-86
2021/06/12 06:51:01;;;;;;;0.10;0.10;;;;;;;16.35;76.29;100813.47;5044018;28;20048;-86
2021/06/12 07:01:40;;;;;;;0.17;0.17;;;;;;;16.62;76.45;100861.94;5048231;28;20045;-87
2021/06/12 07:08:34;;;;;;;0.20;0.20;;;;;;;16.62;76.61;100867.41;5056543;28;20056;-85
2021/06/12 07:11:08;;;;;;;0.10;0.10;;;;;;;16.42;77.64;100841.28;5052723;28;20056;-85
2021/06/12 07:17:36;;;;;;;0.20;0.20;;;;;;;16.30;79.41;100852.88;5051402;28;20045;-83
2021/06/12 07:20:31;;;;;;;0.10;0.10;;;;;;;16.35;78.81;100857.41;5050996;28;20053;-84
2021/06/12 07:23:05;;;;;;;0.10;0.10;;;;;;;16.28;81.04;100847.72;5051474;28;20774;-83
2021/06/12 07:25:42;;;;;;;0.10;0.10;;;;;;;16.02;80.96;100822.84;5063716;28;20416;-84
2021/06/12 07:28:10;;;;;;;0.20;0.20;;;;;;;15.99;81.00;100804.22;5049733;28;20048;-85
2021/06/12 07:30:44;;;;;;;0.10;0.10;;;;;;;16.13;82.19;100842.63;5043807;28;20509;-84
2021/06/12 07:33:19;;;;;;;0.10;0.10;;;;;;;16.13;82.69;100837.91;5049504;28;20076;-85
2021/06/12 07:36:01;;;;;;;0.10;0.10;;;;;;;16.06;82.17;100848.53;5057909;28;20063;-83
2021/06/12 07:38:36;;;;;;;0.20;0.20;;;;;;;15.98;82.32;100844.59;5056996;28;20048;-85
2021/06/12 07:41:10;;;;;;;0.20;0.20;;;;;;;15.88;83.76;100833.06;5060869;28;20051;-83
2021/06/12 07:43:44;;;;;;;0.20;0.20;;;;;;;15.86;83.99;100830.63;5043179;28;20053;-85
2021/06/12 07:46:42;;;;;;;0.10;0.10;;;;;;;15.61;85.41;100830.09;5035054;28;20042;-85
2021/06/12 07:49:37;;;;;;;0.10;0.10;;;;;;;15.52;86.40;100828.38;5046911;28;20044;-86
2021/06/12 07:52:18;;;;;;;0.10;0.10;;;;;;;15.42;86.43;100826.69;5039368;28;20045;-85
2021/06/12 07:55:44;;;;;;;0.10;0.10;;;;;;;15.36;87.51;100834.22;5049275;28;20516;-84
2021/06/12 08:02:38;;;;;;;0.10;0.10;;;;;;;15.47;85.71;100821.09;5046797;28;20040;-84
2021/06/12 08:09:37;;;;;;;0.10;0.10;;;;;;;15.47;87.70;100843.84;5048748;28;20052;-85
2021/06/12 08:12:12;;;;;;;0.10;0.10;;;;;;;15.53;86.83;100852.75;5033099;28;20052;-84
2021/06/12 08:14:48;;;;;;;0.20;0.20;;;;;;;15.51;87.42;100855.03;5051749;28;20049;-84
2021/06/12 08:17:22;;;;;;;0.10;0.10;;;;;;;15.33;87.09;100848.56;5033225;28;20057;-84
2021/06/12 08:19:52;;;;;;;0.20;0.20;;;;;;;15.53;87.32;100855.50;5046982;28;20052;-85
2021/06/12 08:22:27;;;;;;;0.20;0.20;;;;;;;15.46;88.08;100841.41;5059667;28;20057;-84
2021/06/12 08:25:49;;;;;;;0.22;0.20;;;;;;;15.52;87.64;100847.59;5055521;28;20048;-84
2021/06/12 08:29:14;;;;;;;0.30;0.20;;;;;;;15.57;87.19;100855.72;5042419;28;20060;-84
2021/06/12 08:31:48;;;;;;;0.25;0.20;;;;;;;15.69;87.72;100850.50;5049411;28;20079;-83
2021/06/12 08:34:22;;;;;;;0.10;0.10;;;;;;;15.68;87.67;100846.13;5051290;28;20053;-83
2021/06/12 08:38:02;;;;;;;0.20;0.20;;;;;;;15.89;87.68;100843.72;5066994;28;20051;-84
2021/06/12 08:44:57;;;;;;;0.20;0.20;;;;;;;15.79;86.89;100847.53;5077984;28;20030;-84
2021/06/12 08:47:57;;;;;;;0.45;0.30;;;;;;;15.76;87.92;100863.78;5064232;28;20712;-84
2021/06/12 08:50:27;;;;;;;0.10;0.10;;;;;;;15.59;86.11;100837.00;5059339;28;20397;-84
2021/06/12 08:53:31;;;;;;;0.20;0.20;;;;;;;15.64;86.61;100864.31;5062488;28;20052;-85
2021/06/12 08:56:03;;;;;;;0.10;0.10;;;;;;;15.61;87.27;100871.22;5042876;28;20417;-84
2021/06/12 08:58:37;;;;;;;0.20;0.20;;;;;;;15.71;86.71;100878.41;5059743;28;20043;-85
2021/06/12 09:01:10;;;;;;;0.10;0.10;;;;;;;15.68;87.27;100872.75;5062897;28;20055;-86
2021/06/12 09:03:44;;;;;;;0.20;0.20;;;;;;;15.69;87.01;100869.69;5053904;28;20519;-85
2021/06/12 09:06:16;;;;;;;0.10;0.10;;;;;;;15.79;87.20;100860.41;5057230;28;20040;-85
2021/06/12 09:08:57;;;;;;;0.17;0.17;;;;;;;16.05;86.51;100862.59;5062466;28;20049;-84
2021/06/12 09:12:24;;;;;;;0.20;0.20;;;;;;;16.52;86.03;100857.53;5040617;28;20421;-84
2021/06/12 09:15:11;;;;;;;0.20;0.20;;;;;;;16.23;84.97;100827.81;5033862;28;20056;-86
2021/06/12 09:17:48;;;;;;;0.17;0.17;;;;;;;16.47;83.85;100825.50;5044788;28;20131;-84
2021/06/12 09:20:45;;;;;;;0.20;0.20;;;;;;;16.59;84.67;100841.38;5046776;28;20060;-85
2021/06/12 09:23:18;;;;;;;0.13;0.13;;;;;;;16.45;83.28;100826.94;5039308;28;20057;-86
2021/06/12 09:26:13;;;;;;;0.20;0.20;;;;;;;16.84;83.75;100864.59;5046457;28;20056;-84
2021/06/12 09:28:50;;;;;;;0.10;0.10;;;;;;;16.90;83.50;100864.50;5031770;28;20065;-84
2021/06/12 09:35:45;;;;;;;0.20;0.20;;;;;;;16.93;82.17;100861.91;5040783;28;20036;-84
2021/06/12 09:38:43;;;;;;;0.10;0.10;;;;;;;17.10;81.73;100865.84;5045876;28;20050;-85
2021/06/12 09:41:32;;;;;;;0.20;0.20;;;;;;;17.31;82.88;100860.56;5059844;28;20060;-87
2021/06/12 09:44:06;;;;;;;0.10;0.10;;;;;;;17.04;79.41;100856.13;5053274;28;20052;-86
2021/06/12 09:47:05;;;;;;;0.10;0.10;;;;;;;17.14;81.36;100848.38;5050072;28;20070;-85
2021/06/12 09:49:58;;;;;;;0.10;0.10;;;;;;;17.00;77.51;100829.28;5041345;28;20058;-85
2021/06/12 09:52:41;;;;;;;0.15;0.15;;;;;;;17.15;76.09;100852.75;5046294;28;20049;-85
2021/06/12 09:55:31;;;;;;;0.10;0.10;;;;;;;17.30;79.16;100848.75;5045824;28;20045;-85
2021/06/12 09:58:01;;;;;;;0.20;0.20;;;;;;;17.25;76.64;100842.56;5043231;28;20052;-86
2021/06/12 10:00:37;;;;;;;0.10;0.10;;;;;;;17.33;78.36;100845.34;5045882;28;20053;-85
2021/06/12 10:03:20;;;;;;;0.10;0.10;;;;;;;16.98;70.25;100842.50;5043241;28;20564;-85
2021/06/12 10:06:12;;;;;;;0.20;0.20;;;;;;;16.75;75.77;100840.94;5051920;28;20305;-87
2021/06/12 10:08:52;;;;;;;0.20;0.20;;;;;;;16.86;74.29;100858.78;5045809;28;20057;-86
2021/06/12 10:11:26;;;;;;;0.10;0.10;;;;;;;16.83;72.29;100845.69;5046167;28;20067;-86
2021/06/12 10:13:58;;;;;;;0.10;0.10;;;;;;;16.66;76.12;100822.50;5044525;28;20052;-86
2021/06/12 10:16:32;;;;;;;0.10;0.10;;;;;;;16.80;71.92;100841.63;5056008;28;20067;-84
2021/06/12 10:19:06;;;;;;;0.13;0.13;;;;;;;16.60;73.70;100823.78;5051594;28;20048;-86
2021/06/12 10:21:41;;;;;;;0.20;0.20;;;;;;;16.90;71.24;100859.78;5054361;28;20064;-85
2021/06/12 10:24:12;;;;;;;0.10;0.10;;;;;;;16.91;77.08;100850.41;5053608;28;20048;-84
2021/06/12 10:26:43;;;;;;;0.25;0.20;;;;;;;16.99;71.96;100841.38;5054390;28;20052;-83
2021/06/12 10:29:18;;;;;;;0.25;0.20;;;;;;;16.84;73.33;100842.59;5053208;28;20446;-84
2021/06/12 10:31:56;;;;;;;0.20;0.10;;;;;;;17.01;70.06;100896.06;5051874;28;20057;-84
2021/06/12 10:34:28;;;;;;;0.20;0.20;;;;;;;16.53;72.77;100874.81;5055607;28;20045;-84
2021/06/12 10:37:02;;;;;;;0.20;0.20;;;;;;;16.46;74.83;100854.09;5053958;28;21821;-86
2021/06/12 10:39:37;;;;;;;0.20;0.20;;;;;;;16.37;73.10;100857.94;5049352;28;20059;-87
2021/06/12 10:42:17;;;;;;;0.20;0.20;;;;;;;16.40;75.30;100906.72;5046565;28;20052;-85
2021/06/12 10:44:50;;;;;;;0.10;0.10;;;;;;;15.98;69.70;100861.06;5049340;28;20057;-86
2021/06/12 10:47:40;;;;;;;0.20;0.20;;;;;;;16.44;71.69;100925.00;5052461;28;20048;-85
2021/06/12 10:50:33;;;;;;;0.15;0.15;;;;;;;16.51;67.60;100923.78;5053591;28;20044;-85
2021/06/12 10:53:22;;;;;;;0.17;0.17;;;;;;;16.26;70.67;100871.91;5049335;28;20496;-85
2021/06/12 10:55:59;;;;;;;0.15;0.15;;;;;;;16.26;68.30;100879.34;5048652;28;20052;-84
2021/06/12 10:58:51;;;;;;;0.20;0.20;;;;;;;16.67;68.40;100908.50;5047631;28;20053;-86
2021/06/12 11:02:07;;;;;;;0.20;0.20;;;;;;;16.68;67.22;100921.09;5045236;28;21008;-85
2021/06/12 11:04:51;;;;;;;0.15;0.15;;;;;;;16.76;67.08;100925.84;5049194;28;20060;-86
2021/06/12 11:07:30;;;;;;;0.10;0.10;;;;;;;16.36;67.95;100870.84;5051942;28;20056;-85
2021/06/12 11:10:26;;;;;;;0.20;0.20;;;;;;;17.20;65.67;100887.53;5049557;28;20044;-84
2021/06/12 11:13:19;;;;;;;0.20;0.20;;;;;;;17.68;65.03;100875.63;5042229;28;20621;-85
2021/06/12 11:15:48;;;;;;;0.10;0.10;;;;;;;18.16;63.99;100882.13;5047656;28;20056;-85
2021/06/12 11:19:05;;;;;;;0.10;0.10;;;;;;;17.82;60.74;100904.94;5045781;28;20049;-84
2021/06/12 11:22:24;;;;;;;0.20;0.20;;;;;;;17.34;64.66;100877.25;5049581;28;20068;-84
2021/06/12 11:25:01;;;;;;;0.20;0.20;;;;;;;17.79;65.44;100881.63;5050545;28;20060;-84
2021/06/12 11:27:36;;;;;;;0.10;0.10;;;;;;;18.13;64.16;100892.97;5050335;28;20053;-85
2021/06/12 11:30:32;;;;;;;0.20;0.20;;;;;;;18.31;63.64;100913.88;5051153;28;20056;-86
2021/06/12 11:33:18;;;;;;;0.20;0.20;;;;;;;17.94;64.56;100893.31;5049682;28;20048;-89
2021/06/12 11:35:48;;;;;;;0.13;0.13;;;;;;;17.51;67.34;100925.97;5048143;28;20060;-86
2021/06/12 11:38:30;;;;;;;0.10;0.10;;;;;;;16.69;62.08;100897.19;5052343;28;20307;-83
2021/06/12 11:41:00;;;;;;;0.10;0.10;;;;;;;16.53;63.15;100889.38;5047986;28;20132;-86
2021/06/12 11:43:37;;;;;;;0.20;0.20;;;;;;;16.83;63.33;100939.94;5050230;28;20065;-87
2021/06/12 11:46:13;;;;;;;0.32;0.20;;;;;;;16.47;63.56;100901.59;5049157;28;20512;-86
2021/06/12 11:48:49;;;;;;;0.13;0.13;;;;;;;16.38;65.27;100904.31;5047454;28;20060;-87
2021/06/12 11:51:45;;;;;;;0.10;0.10;;;;;;;16.67;65.14;100938.72;5048986;28;20067;-86
2021/06/12 11:54:16;;;;;;;0.20;0.20;;;;;;;16.91;63.63;100908.16;5049453;28;20049;-84
2021/06/12 11:57:35;;;;;;;0.20;0.13;;;;;;;17.11;64.01;100937.03;5048089;28;20412;-86
2021/06/12 12:00:38;;;;;;;0.20;0.20;;;;;;;16.78;62.54;100934.59;5048397;28;21443;-86
2021/06/12 12:03:16;;;;;;;0.20;0.20;;;;;;;16.71;61.61;100925.16;5042446;28;20061;-90
2021/06/12 12:06:34;;;;;;;0.63;0.20;;;;;;;16.49;64.02;100938.63;5048092;28;20084;-88
2021/06/12 12:09:05;;;;;;;0.20;0.20;;;;;;;16.57;67.19;100937.06;5049512;28;20061;-86
2021/06/12 12:11:43;;;;;;;0.20;0.20;;;;;;;16.74;65.84;100866.84;5049312;28;20057;-86
2021/06/12 12:14:38;;;;;;;0.20;0.20;;;;;;;17.29;63.74;100940.63;5047388;28;20119;-85
2021/06/12 12:17:20;;;;;;;0.20;0.15;;;;;;;17.29;62.59;100906.81;5047830;28;20052;-87
2021/06/12 12:20:01;;;;;;;0.20;0.20;;;;;;;17.43;63.56;100909.44;5050849;28;20044;-89
2021/06/12 12:22:48;;;;;;;0.20;0.20;;;;;;;17.73;62.97;100915.13;5046363;28;20063;-87
2021/06/12 12:25:22;;;;;;;0.20;0.20;;;;;;;17.82;62.32;100886.47;5047611;28;20059;-86
2021/06/12 12:28:05;;;;;;;0.15;0.15;;;;;;;17.87;61.44;100924.06;5048101;28;20065;-87
2021/06/12 12:31:07;;;;;;;0.20;0.20;;;;;;;17.83;58.97;100923.09;5049761;28;20055;-85
2021/06/12 12:33:47;;;;;;;0.30;0.20;;;;;;;18.04;60.97;100917.78;5046281;28;20048;-86
2021/06/12 12:40:32;;;;;;;0.38;0.20;;;;;;;17.98;61.33;100928.16;5049478;28;20059;-93
2021/06/12 12:43:29;;;;;;;0.10;0.10;;;;;;;18.40;59.99;100911.09;5046234;28;20057;-86
2021/06/12 12:46:08;;;;;;;0.22;0.20;;;;;;;18.06;59.60;100903.69;5050026;28;20036;-85
2021/06/12 12:48:42;;;;;;;0.20;0.20;;;;;;;17.96;58.72;100908.38;5046402;28;20049;-86
2021/06/12 12:51:24;;;;;;;0.10;0.10;;;;;;;17.73;59.55;100902.22;5042361;28;20064;-86
2021/06/12 12:54:10;;;;;;;0.10;0.10;;;;;;;17.79;59.97;100891.84;5043453;28;21326;-86
2021/06/12 12:57:05;;;;;;;0.20;0.20;;;;;;;17.63;58.66;100891.50;5042011;28;20045;-87
2021/06/12 12:59:38;;;;;;;0.20;0.20;;;;;;;17.63;60.01;100949.28;5040198;28;20898;-86
2021/06/12 13:02:12;;;;;;;0.20;0.20;;;;;;;17.11;61.18;100923.28;5045413;28;20437;-85
2021/06/12 13:05:33;;;;;;;0.10;0.10;;;;;;;17.26;62.04;100959.72;5050101;28;20072;-87
2021/06/12 13:08:05;;;;;;;0.20;0.20;;;;;;;17.52;62.22;100959.78;5043570;28;20080;-85
2021/06/12 13:10:36;;;;;;;0.20;0.20;;;;;;;17.54;61.95;100929.19;5042329;28;20053;-88
2021/06/12 13:13:08;;;;;;;0.57;0.22;;;;;;;17.75;62.92;100905.44;5044554;28;20045;-92
2021/06/12 13:15:39;;;;;;;0.20;0.20;;;;;;;17.55;59.90;100948.13;5041685;28;20053;-88
2021/06/12 13:18:15;;;;;;;0.20;0.20;;;;;;;17.43;60.44;100956.22;5042884;28;20048;-87
2021/06/12 13:20:44;;;;;;;0.20;0.20;;;;;;;17.49;59.88;100958.47;5043699;28;20061;-86
2021/06/12 13:23:26;;;;;;;0.20;0.20;;;;;;;17.47;61.10;100936.00;5046365;28;20052;-87
2021/06/12 13:26:17;;;;;;;0.20;0.20;;;;;;;17.43;57.29;100917.72;5043976;28;20063;-87
2021/06/12 13:28:54;;;;;;;0.13;0.13;;;;;;;18.17;58.34;100941.59;5048231;28;20836;-88
2021/06/12 13:31:40;;;;;;;0.22;0.22;;;;;;;18.23;58.02;100936.72;5043641;28;20076;-86
2021/06/12 13:34:30;;;;;;;0.10;0.10;;;;;;;18.06;55.08;100923.75;5049314;28;20048;-86
2021/06/12 13:37:03;;;;;;;0.30;0.30;;;;;;;18.12;57.29;100922.47;5045194;28;20057;-86
2021/06/12 13:39:43;;;;;;;0.20;0.20;;;;;;;18.15;54.81;100919.06;5045417;28;20722;-90
2021/06/12 13:42:42;;;;;;;0.20;0.20;;;;;;;18.51;55.95;100963.91;5048814;28;20049;-84
2021/06/12 13:45:16;;;;;;;0.20;0.20;;;;;;;17.96;56.55;100971.69;5046705;28;20898;-86
2021/06/12 13:48:16;;;;;;;0.10;0.10;;;;;;;17.98;57.18;100969.44;5048068;28;20052;-86
2021/06/12 13:50:50;;;;;;;0.25;0.10;;;;;;;17.77;57.20;100954.66;5049632;28;20493;-86
2021/06/12 13:53:39;;;;;;;0.20;0.20;;;;;;;17.64;57.97;100934.41;5045483;28;20072;-85
2021/06/12 13:56:09;;;;;;;0.10;0.10;;;;;;;18.40;57.16;100971.69;5042522;28;20049;-86
2021/06/12 13:59:08;;;;;;;0.10;0.10;;;;;;;18.78;55.65;100975.69;5042996;28;20416;-86